Time;durP1;ratioP1;P1;durP2;ratioP2;P2;SDS_P1;SDS_P2;PMS_P1;PMS_P2;Temp;Humidity;BMP_temperature;BMP_pressure;BME280_temperature;BME280_humidity;BME280_pressure;Samples;Min_cycle;Max_cycle;Signal;HPM_P1;HPM_P2
2023/07/26 06:07:02;;;;;;;;;4.67;4.67;;;;;21.60;49.83;101243.31;5055337;28;46587;-76
2023/07/26 06:09:28;;;;;;;;;4.00;4.00;;;;;21.73;49.95;101245.75;5039177;28;45634;-76
2023/07/26 06:11:53;;;;;;;;;8.00;5.00;;;;;21.89;49.91;101239.75;5039530;27;55230;-76
2023/07/26 06:14:18;;;;;;;;;5.00;5.00;;;;;22.09;49.76;101242.41;5101487;27;56642;-76
2023/07/26 06:16:44;;;;;;;;;4.00;4.00;;;;;22.25;49.07;101248.03;5058079;27;45427;-76
2023/07/26 06:19:09;;;;;;;;;5.00;5.00;;;;;22.41;48.84;101249.28;5042948;28;45455;-76
2023/07/26 06:21:34;;;;;;;;;4.67;4.67;;;;;22.55;48.56;101249.81;5032598;27;45535;-75
2023/07/26 06:24:00;;;;;;;;;3.33;3.33;;;;;22.71;48.40;101255.44;5062989;27;45476;-76
2023/07/26 06:26:25;;;;;;;;;5.00;5.00;;;;;22.84;48.16;101256.94;5089947;27;48511;-75
2023/07/26 06:28:50;;;;;;;;;3.67;3.67;;;;;22.94;47.80;101254.16;5066288;27;58158;-75
2023/07/26 06:31:16;;;;;;;;;4.33;3.00;;;;;23.08;47.55;101260.91;5040538;28;50222;-77
2023/07/26 06:33:41;;;;;;;;;5.00;5.00;;;;;23.18;47.48;101261.72;5033223;28;45487;-76
2023/07/26 06:36:07;;;;;;;;;5.00;4.67;;;;;23.28;47.56;101265.19;5044779;27;51401;-76
2023/07/26 06:38:32;;;;;;;;;4.00;4.00;;;;;23.40;46.98;101270.41;5051838;27;45581;-76
2023/07/26 06:40:58;;;;;;;;;3.67;3.67;;;;;23.48;46.75;101267.78;5059438;27;45706;-77
2023/07/26 06:43:23;;;;;;;;;3.33;3.33;;;;;23.53;46.65;101257.31;5039368;28;45551;-79
2023/07/26 06:45:50;;;;;;;;;2.67;2.67;;;;;23.64;46.77;101268.91;5038360;27;49469;-78
2023/07/26 06:48:16;;;;;;;;;3.00;3.00;;;;;23.72;46.38;101276.25;5036547;28;45670;-77
2023/07/26 06:50:42;;;;;;;;;4.67;4.67;;;;;23.79;46.06;101269.22;5055291;27;45634;-77
2023/07/26 06:53:08;;;;;;;;;4.00;2.33;;;;;23.83;46.22;101270.59;5039358;27;45712;-76
2023/07/26 06:55:35;;;;;;;;;3.33;3.33;;;;;23.90;46.10;101270.78;5026266;28;46386;-75
2023/07/26 06:58:00;;;;;;;;;5.00;5.00;;;;;23.97;45.98;101265.59;5032981;27;45338;-77
2023/07/26 07:00:25;;;;;;;;;4.33;4.33;;;;;24.02;45.97;101276.81;5029900;28;45471;-77
2023/07/26 07:03:01;;;;;;;;;5.00;5.00;;;;;24.06;45.99;101276.34;5049054;27;45594;-77
2023/07/26 07:05:29;;;;;;;;;5.00;3.67;;;;;24.10;45.58;101278.78;5034106;27;45632;-79
2023/07/26 07:07:54;;;;;;;;;3.00;3.00;;;;;24.13;45.45;101270.31;5036399;28;45827;-78
2023/07/26 07:10:21;;;;;;;;;4.00;3.00;;;;;24.17;45.50;101277.13;5035139;28;45905;-77
2023/07/26 07:12:46;;;;;;;;;3.00;3.00;;;;;24.18;45.38;101274.25;5034332;28;45541;-76
2023/07/26 07:15:12;;;;;;;;;5.00;5.00;;;;;24.22;45.45;101269.34;5035634;27;45718;-77
2023/07/26 07:17:37;;;;;;;;;1.67;1.67;;;;;24.25;45.25;101268.19;5028413;27;45572;-77
2023/07/26 07:20:05;;;;;;;;;4.00;3.00;;;;;24.27;45.22;101269.72;5016808;27;56291;-78
2023/07/26 07:22:30;;;;;;;;;6.00;6.00;;;;;24.29;45.26;101267.72;5012958;28;45414;-80
2023/07/26 07:24:55;;;;;;;;;3.33;3.33;;;;;24.34;45.06;101273.50;5013809;28;45527;-80
2023/07/26 07:27:21;;;;;;;;;4.00;4.00;;;;;24.35;45.02;101268.91;5013359;27;45513;-81
2023/07/26 07:29:46;;;;;;;;;3.00;3.00;;;;;24.38;44.88;101268.59;5026029;27;45631;-81
2023/07/26 07:32:12;;;;;;;;;3.33;3.33;;;;;24.40;44.78;101271.16;5023472;27;45557;-81
2023/07/26 07:34:37;;;;;;;;;3.00;3.00;;;;;24.40;45.14;101269.25;4999779;28;45937;-74
2023/07/26 07:37:03;;;;;;;;;5.00;3.33;;;;;24.43;44.98;101268.97;5019239;28;45596;-77
2023/07/26 07:39:29;;;;;;;;;3.00;3.00;;;;;24.44;44.68;101281.50;5021991;27;45341;-77
2023/07/26 07:41:54;;;;;;;;;4.00;2.00;;;;;24.43;44.85;101268.97;5052019;27;45463;-76
2023/07/26 07:44:19;;;;;;;;;3.33;3.33;;;;;24.45;44.80;101266.91;5039262;27;45349;-76
2023/07/26 07:46:45;;;;;;;;;5.33;3.67;;;;;24.46;45.08;101263.22;5027740;27;47358;-76
2023/07/26 07:49:11;;;;;;;;;3.00;3.00;;;;;24.48;44.45;101271.16;5019806;28;45771;-77
2023/07/26 07:51:36;;;;;;;;;2.33;2.33;;;;;24.49;44.85;101270.19;5022712;28;45484;-76
2023/07/26 07:54:02;;;;;;;;;3.67;3.67;;;;;24.47;44.74;101273.03;5023307;27;47448;-76
2023/07/26 07:56:27;;;;;;;;;3.00;3.00;;;;;24.47;44.42;101264.03;5046566;27;45560;-77
2023/07/26 07:58:53;;;;;;;;;6.67;3.67;;;;;24.46;44.96;101254.22;5042229;27;45691;-77
2023/07/26 08:01:18;;;;;;;;;6.00;4.67;;;;;24.51;45.02;101257.28;5022559;27;45596;-76
2023/07/26 08:03:43;;;;;;;;;4.00;4.00;;;;;24.52;44.66;101258.97;5016895;28;66564;-77
2023/07/26 08:06:09;;;;;;;;;5.00;3.67;;;;;24.58;44.92;101262.91;5025521;28;50605;-76
2023/07/26 08:08:35;;;;;;;;;3.67;3.67;;;;;24.60;44.87;101258.16;5027556;27;45851;-77
2023/07/26 08:11:02;;;;;;;;;3.00;3.00;;;;;24.64;45.08;101267.69;5087201;27;48628;-75
2023/07/26 08:13:27;;;;;;;;;3.67;2.67;;;;;24.68;45.17;101269.06;5020090;28;45826;-76
2023/07/26 08:15:52;;;;;;;;;3.33;3.33;;;;;24.70;45.12;101267.06;5021149;28;52038;-76
2023/07/26 08:18:18;;;;;;;;;3.33;3.33;;;;;24.75;45.22;101269.25;5018955;28;45582;-76
2023/07/26 08:20:44;;;;;;;;;4.00;4.00;;;;;24.77;45.20;101269.94;5044641;27;45573;-76
2023/07/26 08:23:09;;;;;;;;;2.00;2.00;;;;;24.80;44.96;101264.19;5029043;27;45588;-75
2023/07/26 08:25:35;;;;;;;;;2.33;2.33;;;;;24.85;45.13;101271.88;5027501;27;45859;-77
2023/07/26 08:28:00;;;;;;;;;2.67;2.67;;;;;24.86;45.67;101270.84;5020571;27;45605;-76
2023/07/26 08:30:25;;;;;;;;;3.00;3.00;;;;;24.88;45.14;101270.69;5022026;28;49482;-75
2023/07/26 08:32:51;;;;;;;;;2.33;2.33;;;;;24.92;45.19;101274.75;5012968;27;45639;-76
2023/07/26 08:35:17;;;;;;;;;3.00;3.00;;;;;24.94;45.34;101272.75;5068722;27;45527;-77
2023/07/26 08:37:42;;;;;;;;;3.00;3.00;;;;;24.95;45.68;101275.31;5075632;27;55860;-76
2023/07/26 08:40:08;;;;;;;;;3.00;3.00;;;;;24.96;45.53;101268.84;5038450;28;45614;-76
2023/07/26 08:42:33;;;;;;;;;2.33;2.33;;;;;25.01;45.84;101273.75;5026885;27;45888;-75
2023/07/26 08:44:59;;;;;;;;;3.33;3.33;;;;;25.04;45.92;101278.88;5017636;27;45587;-75
2023/07/26 08:47:25;;;;;;;;;3.00;3.00;;;;;25.08;45.52;101276.66;5048746;27;45604;-76
2023/07/26 08:49:52;;;;;;;;;4.00;3.67;;;;;25.09;45.36;101281.94;5046045;27;45319;-76
2023/07/26 08:52:18;;;;;;;;;3.00;3.00;;;;;25.09;45.30;101273.78;5025885;28;46781;-75
2023/07/26 08:54:45;;;;;;;;;3.00;3.00;;;;;25.12;45.76;101275.31;5021220;28;45451;-75
2023/07/26 08:57:11;;;;;;;;;2.00;2.00;;;;;25.15;45.26;101266.00;5027298;28;45738;-78
2023/07/26 08:59:36;;;;;;;;;2.00;2.00;;;;;25.17;45.45;101274.84;5049027;27;45495;-76
2023/07/26 09:02:03;;;;;;;;;4.00;2.33;;;;;25.19;45.61;101261.94;5052581;27;46249;-74
2023/07/26 09:04:30;;;;;;;;;3.00;3.00;;;;;25.19;45.82;101254.66;5020442;28;45615;-77
2023/07/26 09:06:59;;;;;;;;;3.00;3.00;;;;;25.20;45.56;101261.78;5012727;28;45487;-77
2023/07/26 09:09:25;;;;;;;;;2.00;2.00;;;;;25.24;45.82;101265.00;5014127;28;45457;-76
2023/07/26 09:11:51;;;;;;;;;2.00;2.00;;;;;25.25;45.90;101256.69;5021686;27;46026;-76
2023/07/26 09:14:17;;;;;;;;;2.00;2.00;;;;;25.26;45.62;101260.25;5062236;27;45667;-74
2023/07/26 09:16:43;;;;;;;;;3.00;3.00;;;;;25.27;45.53;101253.81;5054392;27;45560;-74
2023/07/26 09:19:09;;;;;;;;;3.00;3.00;;;;;25.29;45.43;101254.47;5019807;27;45515;-73
2023/07/26 09:21:36;;;;;;;;;3.00;1.67;;;;;25.32;45.67;101256.88;5026612;27;45944;-74
2023/07/26 09:24:03;;;;;;;;;4.00;4.00;;;;;25.34;45.16;101259.41;5017223;27;45663;-75
2023/07/26 09:26:40;;;;;;;;;4.00;4.00;;;;;25.35;45.50;101259.25;5040341;27;45616;-74
2023/07/26 09:29:10;;;;;;;;;6.00;3.00;;;;;25.38;44.79;101260.78;5030851;27;45454;-77
2023/07/26 09:31:38;;;;;;;;;3.67;3.67;;;;;25.36;42.81;101257.38;5019982;27;46187;-75
2023/07/26 09:34:07;;;;;;;;;4.00;2.33;;;;;25.33;42.38;101260.41;5056616;27;45509;-75
2023/07/26 09:36:43;;;;;;;;;3.00;3.00;;;;;25.31;42.78;101262.47;5017131;28;45450;-75
2023/07/26 09:39:09;;;;;;;;;4.00;4.00;;;;;25.29;42.79;101257.19;5027606;27;45759;-76
2023/07/26 09:41:35;;;;;;;;;2.00;2.00;;;;;25.27;43.41;101254.63;5053581;27;45657;-75
2023/07/26 09:44:00;;;;;;;;;2.67;2.67;;;;;25.27;43.34;101262.78;5027331;27;45441;-76
2023/07/26 09:46:25;;;;;;;;;2.00;2.00;;;;;25.24;43.57;101257.72;5022875;27;46011;-77
2023/07/26 09:48:59;;;;;;;;;3.67;3.67;;;;;25.28;43.44;101260.94;5017057;27;45531;-77
2023/07/26 09:51:29;;;;;;;;;4.33;3.33;;;;;25.30;43.11;101269.75;5035709;27;45897;-77
2023/07/26 09:53:56;;;;;;;;;3.00;3.00;;;;;25.31;43.48;101268.75;5054578;27;45566;-77
2023/07/26 09:56:31;;;;;;;;;3.00;3.00;;;;;25.35;43.57;101258.41;5024358;27;45556;-77
2023/07/26 09:58:56;;;;;;;;;3.00;1.00;;;;;25.36;43.70;101265.53;5022997;27;45615;-75
2023/07/26 10:01:23;;;;;;;;;3.00;3.00;;;;;25.37;43.95;101259.91;5018102;28;46301;-74
2023/07/26 10:03:52;;;;;;;;;2.00;2.00;;;;;25.41;43.14;101260.44;5016892;27;45452;-75
2023/07/26 10:06:19;;;;;;;;;3.00;3.00;;;;;25.44;43.63;101262.81;5067784;27;45603;-75
2023/07/26 10:08:46;;;;;;;;;2.67;2.67;;;;;25.45;43.87;101266.38;5037262;27;45638;-76
2023/07/26 10:11:14;;;;;;;;;3.00;3.00;;;;;25.47;43.72;101269.78;5014670;27;47670;-76
2023/07/26 10:13:42;;;;;;;;;4.33;2.00;;;;;25.49;43.89;101265.00;5023888;28;45962;-76
2023/07/26 10:16:08;;;;;;;;;3.33;3.33;;;;;25.50;43.64;101269.44;5025307;27;45697;-76
2023/07/26 10:18:34;;;;;;;;;3.00;3.00;;;;;25.50;44.30;101273.00;5038027;27;45752;-79
2023/07/26 10:21:04;;;;;;;;;3.00;3.00;;;;;25.51;44.04;101263.00;5029732;27;46130;-76
2023/07/26 10:23:30;;;;;;;;;4.00;2.33;;;;;25.55;44.35;101269.81;5029713;27;45549;-79
2023/07/26 10:26:00;;;;;;;;;2.67;2.67;;;;;25.55;44.17;101260.78;5032618;27;45403;-80
2023/07/26 10:28:26;;;;;;;;;3.00;3.00;;;;;25.58;42.91;101257.75;5013760;28;45565;-75
2023/07/26 10:30:52;;;;;;;;;5.00;3.33;;;;;25.56;42.86;101263.38;5047991;27;46292;-76
2023/07/26 10:33:18;;;;;;;;;2.67;2.67;;;;;25.53;42.44;101261.81;5028330;27;45577;-76
2023/07/26 10:35:43;;;;;;;;;3.33;2.00;;;;;25.51;41.79;101258.38;5018629;28;45495;-77
2023/07/26 10:38:09;;;;;;;;;1.33;1.33;;;;;25.51;41.98;101265.72;5017731;27;45737;-76
2023/07/26 10:40:37;;;;;;;;;3.33;3.00;;;;;25.52;41.38;101259.25;5020647;27;45502;-79
2023/07/26 10:43:22;;;;;;;;;1.00;1.00;;;;;25.51;41.49;101257.56;5022295;27;47266;-80
2023/07/26 10:45:49;;;;;;;;;2.67;2.67;;;;;25.51;41.60;101250.22;5025695;27;45647;-81
2023/07/26 10:48:35;;;;;;;;;2.00;2.00;;;;;25.51;41.83;101250.22;5033306;27;45864;-82
2023/07/26 10:51:21;;;;;;;;;2.00;2.00;;;;;25.50;41.41;101250.44;5021506;28;45727;-80
2023/07/26 10:53:46;;;;;;;;;1.33;1.33;;;;;25.47;41.33;101251.59;5016732;28;46605;-77
2023/07/26 10:56:19;;;;;;;;;2.00;2.00;;;;;25.45;41.09;101247.34;5033901;27;56640;-76
2023/07/26 10:58:55;;;;;;;;;1.00;1.00;;;;;25.44;41.31;101245.66;5029281;27;45591;-75
2023/07/26 11:01:43;;;;;;;;;3.00;3.00;;;;;25.46;41.84;101249.06;5064020;27;46517;-75
2023/07/26 11:04:14;;;;;;;;;2.33;2.33;;;;;25.44;41.66;101241.06;5017425;28;45618;-79
2023/07/26 11:06:48;;;;;;;;;2.00;2.00;;;;;25.44;41.93;101243.78;5015638;28;45476;-79
2023/07/26 11:09:21;;;;;;;;;3.00;2.00;;;;;25.42;41.92;101245.81;5024506;27;45308;-80
2023/07/26 11:12:14;;;;;;;;;3.00;3.00;;;;;25.43;41.73;101249.41;5082959;27;46347;-80
2023/07/26 11:14:41;;;;;;;;;1.67;1.67;;;;;25.43;41.87;101243.97;5026418;28;45747;-82
2023/07/26 11:17:16;;;;;;;;;2.00;2.00;;;;;25.42;41.51;101242.28;5015848;27;45899;-79
2023/07/26 11:19:47;;;;;;;;;2.00;2.00;;;;;25.43;41.72;101241.25;5018376;28;45545;-75
2023/07/26 11:22:12;;;;;;;;;4.00;3.00;;;;;25.41;41.82;101241.41;5045438;27;45670;-76
2023/07/26 11:24:38;;;;;;;;;3.00;3.00;;;;;25.41;41.84;101237.84;5030199;27;45752;-76
2023/07/26 11:27:05;;;;;;;;;4.00;4.00;;;;;25.42;41.42;101242.28;5028602;27;45667;-75
2023/07/26 11:29:31;;;;;;;;;3.00;2.33;;;;;25.41;41.00;101240.56;5023858;27;45606;-76
2023/07/26 11:31:56;;;;;;;;;4.67;3.00;;;;;25.38;41.23;101228.19;5040081;27;46530;-77
2023/07/26 11:34:21;;;;;;;;;4.67;4.00;;;;;25.38;41.46;101234.44;5016784;28;45811;-77
2023/07/26 11:36:47;;;;;;;;;3.67;3.67;;;;;25.37;41.20;101238.19;5079379;27;45634;-77
2023/07/26 11:39:24;;;;;;;;;4.67;4.33;;;;;25.38;41.08;101237.16;5053337;27;45609;-77
2023/07/26 11:41:50;;;;;;;;;3.00;2.00;;;;;25.38;41.25;101228.19;5025242;28;46134;-77
2023/07/26 11:44:16;;;;;;;;;4.00;3.00;;;;;25.37;41.36;101221.03;5021828;27;45473;-77
2023/07/26 11:46:44;;;;;;;;;4.00;2.33;;;;;25.39;41.23;101232.59;5030775;28;45558;-78
2023/07/26 11:49:18;;;;;;;;;3.00;3.00;;;;;25.40;41.69;101223.41;5066469;27;45970;-77
2023/07/26 11:51:43;;;;;;;;;3.33;3.33;;;;;25.38;41.49;101226.28;5049192;27;45476;-73
2023/07/26 11:54:10;;;;;;;;;5.33;4.67;;;;;25.39;41.11;101236.13;5022797;27;45411;-73
2023/07/26 11:56:37;;;;;;;;;4.00;4.00;;;;;25.39;41.20;101227.16;5030259;28;45644;-74
2023/07/26 11:59:03;;;;;;;;;4.67;3.00;;;;;25.38;40.89;101223.56;5028920;27;45588;-74
2023/07/26 12:01:30;;;;;;;;;4.33;4.33;;;;;25.39;41.03;101227.16;5041113;27;45697;-74
2023/07/26 12:03:56;;;;;;;;;2.67;2.33;;;;;25.36;41.15;101220.19;5027636;27;45379;-74
2023/07/26 12:06:28;;;;;;;;;3.00;3.00;;;;;25.36;41.01;101222.91;5037621;27;45591;-74
2023/07/26 12:08:53;;;;;;;;;2.00;2.00;;;;;25.34;41.28;101208.63;5023957;28;45633;-73
2023/07/26 12:11:19;;;;;;;;;6.33;5.00;;;;;25.30;41.01;101204.53;5029633;27;46367;-73
2023/07/26 12:13:45;;;;;;;;;3.33;3.00;;;;;25.32;41.58;101212.53;5017528;27;45568;-74
2023/07/26 12:16:10;;;;;;;;;1.00;1.00;;;;;25.32;41.27;101207.97;5100443;27;45926;-76
2023/07/26 12:18:47;;;;;;;;;3.67;2.67;;;;;25.32;41.60;101215.25;5058021;27;45630;-73
2023/07/26 12:21:12;;;;;;;;;3.00;2.67;;;;;25.31;41.61;101208.13;5028058;27;46751;-75
2023/07/26 12:23:49;;;;;;;;;3.67;2.00;;;;;25.32;41.46;101218.81;5017719;28;45432;-75
2023/07/26 12:26:15;;;;;;;;;3.00;3.00;;;;;25.32;41.46;101212.53;5022998;28;45820;-74
2023/07/26 12:28:42;;;;;;;;;3.00;3.00;;;;;25.31;41.50;101206.28;5040890;27;45946;-74
2023/07/26 12:31:07;;;;;;;;;3.00;3.00;;;;;25.32;41.34;101201.66;5021861;27;46260;-75
2023/07/26 12:33:33;;;;;;;;;6.33;3.67;;;;;25.32;41.78;101201.66;5023948;27;57915;-76
2023/07/26 12:35:58;;;;;;;;;2.00;2.00;;;;;25.29;42.29;101194.69;5020376;27;45487;-79
2023/07/26 12:38:24;;;;;;;;;3.00;2.67;;;;;25.29;42.19;101202.03;5028373;27;46918;-76
2023/07/26 12:40:51;;;;;;;;;3.67;3.67;;;;;25.32;42.01;101205.25;5045499;27;45933;-77
2023/07/26 12:43:27;;;;;;;;;2.00;2.00;;;;;25.36;42.68;101208.47;5063920;27;45554;-77
2023/07/26 12:45:54;;;;;;;;;4.00;3.00;;;;;25.37;42.91;101211.00;5026367;28;45735;-77
2023/07/26 12:48:20;;;;;;;;;6.00;2.67;;;;;25.41;42.96;101206.09;5026651;28;45732;-77
2023/07/26 12:50:45;;;;;;;;;4.00;3.00;;;;;25.44;42.86;101204.88;5019210;28;45487;-77
2023/07/26 12:53:11;;;;;;;;;2.00;1.33;;;;;25.46;43.07;101214.56;5033135;27;46200;-77
2023/07/26 12:55:40;;;;;;;;;2.00;2.00;;;;;25.48;43.22;101208.97;5038697;27;45512;-77
2023/07/26 12:58:06;;;;;;;;;5.00;3.00;;;;;25.51;43.11;101208.63;5036970;27;45467;-77
2023/07/26 13:00:32;;;;;;;;;5.33;3.00;;;;;25.53;43.50;101201.16;5028291;28;46310;-77
2023/07/26 13:02:58;;;;;;;;;3.00;3.00;;;;;25.55;43.66;101195.56;5029623;28;45507;-79
2023/07/26 13:05:23;;;;;;;;;3.67;3.00;;;;;25.59;43.72;101196.94;5009577;28;45607;-80
2023/07/26 13:07:52;;;;;;;;;3.00;3.00;;;;;25.59;41.87;101195.06;5014035;27;46155;-81
2023/07/26 13:10:19;;;;;;;;;3.00;3.00;;;;;25.59;41.77;101214.06;5022975;27;45592;-81
2023/07/26 13:12:44;;;;;;;;;4.33;3.00;;;;;25.58;41.91;101204.22;5027062;27;45621;-77
2023/07/26 13:15:10;;;;;;;;;2.00;2.00;;;;;25.57;42.09;101201.69;5028853;28;45649;-79
2023/07/26 13:17:35;;;;;;;;;2.33;2.33;;;;;25.56;41.24;101194.56;5024535;28;45408;-77
2023/07/26 13:20:00;;;;;;;;;4.00;2.33;;;;;25.53;41.58;101202.00;5056925;27;50276;-77
2023/07/26 13:22:26;;;;;;;;;3.00;3.00;;;;;25.55;41.50;101204.59;5075857;27;45629;-80
2023/07/26 13:24:52;;;;;;;;;2.33;2.33;;;;;25.54;41.54;101200.13;5026176;27;45974;-79
2023/07/26 13:27:17;;;;;;;;;2.00;2.00;;;;;25.55;41.56;101193.72;5022158;28;50912;-80
2023/07/26 13:29:42;;;;;;;;;3.33;3.33;;;;;25.56;41.77;101198.13;5021325;27;53063;-79
2023/07/26 13:32:08;;;;;;;;;4.33;2.00;;;;;25.56;41.18;101198.13;5017622;27;45406;-79
2023/07/26 13:34:34;;;;;;;;;4.00;3.00;;;;;25.54;41.34;101200.13;5036293;27;45617;-78
2023/07/26 13:36:59;;;;;;;;;2.00;2.00;;;;;25.56;41.56;101197.28;5048480;27;56789;-78
2023/07/26 13:39:25;;;;;;;;;3.00;3.00;;;;;25.56;41.88;101197.28;5027318;27;45424;-78
2023/07/26 13:41:51;;;;;;;;;4.33;3.33;;;;;25.57;41.32;101198.97;5029561;28;45475;-77
2023/07/26 13:44:16;;;;;;;;;2.00;2.00;;;;;25.59;41.85;101194.22;5006823;28;45576;-81
2023/07/26 13:46:41;;;;;;;;;2.00;2.00;;;;;25.62;42.08;101185.72;5033999;27;45450;-80
2023/07/26 13:49:07;;;;;;;;;3.00;3.00;;;;;25.63;41.92;101179.28;5090813;27;45555;-78
2023/07/26 13:51:33;;;;;;;;;2.00;2.00;;;;;25.68;41.82;101181.47;5046172;27;45497;-78
2023/07/26 13:54:00;;;;;;;;;5.00;2.33;;;;;25.69;42.16;101194.88;5040521;27;45391;-77
2023/07/26 13:56:25;;;;;;;;;2.67;2.67;;;;;25.71;42.07;101181.97;5039022;27;45519;-81
2023/07/26 13:58:50;;;;;;;;;2.33;1.33;;;;;25.73;42.21;101173.63;5023095;27;46274;-79
2023/07/26 14:01:16;;;;;;;;;3.33;2.67;;;;;25.74;42.16;101157.16;5026874;27;45918;-79
2023/07/26 14:03:41;;;;;;;;;1.33;1.33;;;;;25.76;42.59;101159.69;5016679;27;45487;-79
2023/07/26 14:06:07;;;;;;;;;2.67;2.67;;;;;25.81;42.66;101153.72;5051638;27;50974;-77
2023/07/26 14:08:32;;;;;;;;;4.00;2.33;;;;;25.83;42.67;101154.41;5064253;27;45951;-80
2023/07/26 14:10:57;;;;;;;;;2.67;2.67;;;;;25.85;42.88;101153.22;5027547;28;45539;-79
2023/07/26 14:13:23;;;;;;;;;4.00;2.67;;;;;25.85;43.00;101142.34;5022446;28;52752;-79
2023/07/26 14:15:48;;;;;;;;;2.67;2.67;;;;;25.89;42.52;101151.00;5021184;27;45379;-80
2023/07/26 14:18:13;;;;;;;;;2.00;2.00;;;;;25.90;42.61;101158.13;5060459;27;48750;-80
2023/07/26 14:20:39;;;;;;;;;2.00;2.00;;;;;25.92;42.60;101150.66;5053140;27;45619;-80
2023/07/26 14:23:04;;;;;;;;;2.67;2.67;;;;;25.94;42.58;101155.94;5025045;27;45980;-80
2023/07/26 14:25:31;;;;;;;;;2.33;2.33;;;;;25.95;42.94;101146.75;5067789;27;46166;-83
2023/07/26 14:27:56;;;;;;;;;3.00;3.00;;;;;25.95;42.44;101142.13;5027718;28;45810;-78
2023/07/26 14:30:22;;;;;;;;;2.67;2.67;;;;;25.96;43.01;101140.28;5038154;27;45477;-80
2023/07/26 14:32:47;;;;;;;;;2.00;2.00;;;;;25.98;43.14;101146.38;5094574;27;45380;-78
2023/07/26 14:35:16;;;;;;;;;1.67;1.67;;;;;25.99;43.12;101146.19;5051446;27;57370;-77
2023/07/26 14:37:44;;;;;;;;;2.00;2.00;;;;;26.02;42.58;101150.44;5060862;27;47760;-80
2023/07/26 14:40:10;;;;;;;;;4.00;2.67;;;;;26.04;43.01;101162.84;5022007;27;45549;-80
2023/07/26 14:42:35;;;;;;;;;3.00;3.00;;;;;26.05;42.81;101150.09;5028083;27;45590;-80
2023/07/26 14:45:01;;;;;;;;;3.00;3.00;;;;;26.05;43.07;101150.09;5037843;27;48375;-80
2023/07/26 14:47:27;;;;;;;;;3.00;3.00;;;;;26.07;43.02;101150.75;5031600;27;46210;-80
2023/07/26 14:49:53;;;;;;;;;3.00;3.00;;;;;26.07;41.49;101150.75;5058220;27;45525;-80
2023/07/26 14:52:18;;;;;;;;;5.67;4.33;;;;;26.05;40.86;101141.94;5030156;28;56248;-80
2023/07/26 14:54:43;;;;;;;;;4.67;3.00;;;;;26.03;40.68;101152.13;5031125;28;45555;-81
2023/07/26 14:57:09;;;;;;;;;3.33;3.33;;;;;25.98;40.81;101140.94;5043959;27;48173;-80
2023/07/26 14:59:35;;;;;;;;;4.67;4.67;;;;;25.97;40.59;101139.25;5012034;27;45468;-80
2023/07/26 15:02:00;;;;;;;;;3.00;3.00;;;;;25.94;40.80;101129.56;5015363;28;45425;-80
2023/07/26 15:04:25;;;;;;;;;4.00;4.00;;;;;25.92;40.84;101132.44;5016163;28;45496;-81
2023/07/26 15:06:52;;;;;;;;;3.00;1.67;;;;;25.90;41.23;101136.38;5044295;27;45508;-80
2023/07/26 15:09:17;;;;;;;;;3.33;2.00;;;;;25.86;41.21;101132.31;5049392;27;45729;-79
2023/07/26 15:11:43;;;;;;;;;2.00;2.00;;;;;25.84;40.77;101134.34;5085719;27;45579;-80
2023/07/26 15:14:08;;;;;;;;;3.67;2.67;;;;;25.82;41.32;101130.97;5029238;27;46693;-79
2023/07/26 15:16:34;;;;;;;;;3.00;3.00;;;;;25.80;41.21;101128.44;5019619;27;46015;-80
2023/07/26 15:18:59;;;;;;;;;1.67;1.67;;;;;25.79;41.26;101126.75;5018749;27;45660;-79
2023/07/26 15:21:24;;;;;;;;;8.67;3.00;;;;;25.78;41.27;101123.16;5016354;28;51164;-79
2023/07/26 15:23:52;;;;;;;;;3.00;3.00;;;;;25.77;41.10;101126.91;5046781;27;45600;-76
2023/07/26 15:26:18;;;;;;;;;8.00;4.00;;;;;25.76;41.49;101127.91;5037043;27;45511;-76
2023/07/26 15:28:43;;;;;;;;;2.67;2.67;;;;;25.76;41.91;101127.91;5021159;28;45512;-77
2023/07/26 15:31:08;;;;;;;;;4.67;3.67;;;;;25.78;42.10;101123.16;5024071;28;45456;-75
2023/07/26 15:33:34;;;;;;;;;4.00;4.00;;;;;25.80;42.17;101112.13;5021218;28;46411;-77
2023/07/26 15:35:59;;;;;;;;;3.33;3.33;;;;;25.82;42.35;101101.91;5058186;27;46061;-73
2023/07/26 15:38:24;;;;;;;;;2.67;2.67;;;;;25.84;42.14;101105.31;5040580;27;45433;-74
2023/07/26 15:40:51;;;;;;;;;3.00;3.00;;;;;25.84;42.23;101104.44;5030669;28;45894;-74
2023/07/26 15:43:16;;;;;;;;;3.67;3.67;;;;;25.88;41.85;101109.34;5019895;27;45594;-75
2023/07/26 15:45:42;;;;;;;;;4.33;3.00;;;;;25.91;42.64;101102.72;5022622;27;45578;-75
2023/07/26 15:48:07;;;;;;;;;5.33;2.33;;;;;25.92;42.54;101097.09;5018228;27;45584;-76
2023/07/26 15:50:32;;;;;;;;;2.00;2.00;;;;;25.93;42.69;101100.69;5042208;27;51238;-75
2023/07/26 15:52:57;;;;;;;;;3.00;3.00;;;;;25.96;43.11;101094.03;5052576;27;45682;-75
2023/07/26 15:55:23;;;;;;;;;6.00;3.00;;;;;25.96;43.00;101097.63;5019724;27;48361;-76
2023/07/26 15:57:49;;;;;;;;;4.33;3.00;;;;;25.93;43.12;101092.53;5015552;28;45467;-76
2023/07/26 16:00:15;;;;;;;;;3.33;3.33;;;;;25.94;43.34;101096.94;5058177;27;45526;-75
2023/07/26 16:02:40;;;;;;;;;3.00;3.00;;;;;25.91;43.53;101098.13;5035870;27;45576;-75
2023/07/26 16:05:06;;;;;;;;;3.00;3.00;;;;;25.88;43.69;101082.16;5030172;27;46310;-76
2023/07/26 16:07:31;;;;;;;;;3.00;3.00;;;;;25.85;44.05;101098.84;5018766;28;45463;-77
2023/07/26 16:09:56;;;;;;;;;4.00;2.33;;;;;25.84;44.24;101079.97;5021699;27;45767;-77
2023/07/26 16:12:21;;;;;;;;;5.00;3.33;;;;;25.83;43.83;101089.16;5031006;28;51669;-77
2023/07/26 16:14:47;;;;;;;;;3.00;2.33;;;;;25.81;44.28;101091.19;5038144;27;45681;-76
2023/07/26 16:17:12;;;;;;;;;4.67;2.67;;;;;25.78;44.35;101090.53;5050782;27;51378;-76
2023/07/26 16:19:38;;;;;;;;;4.00;2.00;;;;;25.78;44.34;101082.38;5031592;27;45776;-76
2023/07/26 16:22:03;;;;;;;;;3.00;3.00;;;;;25.73;44.09;101073.91;5029492;28;45372;-78
2023/07/26 16:24:28;;;;;;;;;2.00;2.00;;;;;25.73;44.49;101083.91;5035533;27;46082;-77
2023/07/26 16:26:54;;;;;;;;;3.67;3.67;;;;;25.69;44.49;101083.44;5017415;27;57703;-77
2023/07/26 16:29:19;;;;;;;;;2.00;2.00;;;;;25.68;45.26;101075.44;5091715;27;45477;-78
2023/07/26 16:31:46;;;;;;;;;1.00;1.00;;;;;25.64;44.89;101081.25;5045549;27;45329;-79
2023/07/26 16:34:11;;;;;;;;;3.00;3.00;;;;;25.64;45.26;101072.25;5027743;28;45602;-77
2023/07/26 16:36:36;;;;;;;;;1.00;1.00;;;;;25.64;44.69;101075.81;5026731;27;45587;-77
2023/07/26 16:39:02;;;;;;;;;2.00;2.00;;;;;25.65;45.28;101074.78;5034255;28;51618;-77
2023/07/26 16:41:27;;;;;;;;;2.33;2.33;;;;;25.68;45.30;101078.16;5065199;27;45650;-78
2023/07/26 16:43:52;;;;;;;;;2.00;2.00;;;;;25.67;44.87;101069.19;5048838;27;46573;-76
2023/07/26 16:46:18;;;;;;;;;3.00;3.00;;;;;25.69;45.56;101074.41;5027543;28;45575;-77
2023/07/26 16:48:43;;;;;;;;;2.00;2.00;;;;;25.67;45.52;101073.75;5027754;28;46666;-77
2023/07/26 16:51:09;;;;;;;;;3.00;2.33;;;;;25.67;45.03;101071.03;5026765;28;45724;-78
2023/07/26 16:53:34;;;;;;;;;0.67;0.67;;;;;25.65;45.35;101063.06;5026990;27;45874;-77
2023/07/26 16:55:59;;;;;;;;;2.00;2.00;;;;;25.64;45.19;101073.09;5045411;27;45877;-76
2023/07/26 16:58:25;;;;;;;;;1.33;1.33;;;;;25.64;45.15;101064.94;5031686;27;45638;-75
2023/07/26 17:00:50;;;;;;;;;2.33;2.33;;;;;25.66;44.84;101072.91;5022206;27;46705;-75
2023/07/26 17:03:16;;;;;;;;;2.00;2.00;;;;;25.68;45.14;101075.44;5028665;28;45382;-75
2023/07/26 17:05:41;;;;;;;;;3.67;2.00;;;;;25.67;44.13;101061.03;5018709;27;45742;-75
2023/07/26 17:08:06;;;;;;;;;3.00;3.00;;;;;25.69;44.27;101067.13;5037494;27;45379;-76
2023/07/26 17:10:32;;;;;;;;;3.67;2.67;;;;;25.69;44.96;101063.53;5054886;27;45685;-77
